sensor_id;sensor_type;location;lat;lon;timestamp;P1;durP1;ratioP1;P2;durP2;ratioP2
3789;SDS011;1910;49.042;9.028;2022-07-29T00:00:42;7.00;;;4.90;;
3789;SDS011;1910;49.042;9.028;2022-07-29T00:03:11;7.20;;;5.70;;
3789;SDS011;1910;49.042;9.028;2022-07-29T00:05:38;6.43;;;5.37;;
3789;SDS011;1910;49.042;9.028;2022-07-29T00:08:04;8.03;;;5.03;;
3789;SDS011;1910;49.042;9.028;2022-07-29T00:10:30;6.20;;;5.53;;
3789;SDS011;1910;49.042;9.028;2022-07-29T00:12:56;6.37;;;5.70;;
3789;SDS011;1910;49.042;9.028;2022-07-29T00:15:22;9.80;;;6.10;;
3789;SDS011;1910;49.042;9.028;2022-07-29T00:17:48;6.57;;;5.20;;
3789;SDS011;1910;49.042;9.028;2022-07-29T00:20:14;6.70;;;5.80;;
3789;SDS011;1910;49.042;9.028;2022-07-29T00:22:40;9.80;;;5.50;;
3789;SDS011;1910;49.042;9.028;2022-07-29T00:25:06;6.63;;;6.00;;
3789;SDS011;1910;49.042;9.028;2022-07-29T00:27:33;6.50;;;5.80;;
3789;SDS011;1910;49.042;9.028;2022-07-29T00:29:59;6.07;;;5.23;;
3789;SDS011;1910;49.042;9.028;2022-07-29T00:32:25;9.37;;;5.73;;
3789;SDS011;1910;49.042;9.028;2022-07-29T00:34:51;6.90;;;5.67;;
3789;SDS011;1910;49.042;9.028;2022-07-29T00:37:35;8.40;;;6.20;;
3789;SDS011;1910;49.042;9.028;2022-07-29T00:40:01;6.27;;;5.47;;
3789;SDS011;1910;49.042;9.028;2022-07-29T00:42:27;9.10;;;6.70;;
3789;SDS011;1910;49.042;9.028;2022-07-29T00:44:52;7.63;;;6.67;;
3789;SDS011;1910;49.042;9.028;2022-07-29T00:47:18;7.40;;;5.60;;
3789;SDS011;1910;49.042;9.028;2022-07-29T00:49:44;11.17;;;6.40;;
3789;SDS011;1910;49.042;9.028;2022-07-29T00:52:13;8.47;;;6.13;;
3789;SDS011;1910;49.042;9.028;2022-07-29T00:54:39;9.07;;;5.77;;
3789;SDS011;1910;49.042;9.028;2022-07-29T00:57:06;11.50;;;6.80;;
3789;SDS011;1910;49.042;9.028;2022-07-29T00:59:33;9.13;;;6.20;;
3789;SDS011;1910;49.042;9.028;2022-07-29T01:01:59;8.67;;;6.03;;
3789;SDS011;1910;49.042;9.028;2022-07-29T01:04:25;6.33;;;5.23;;
3789;SDS011;1910;49.042;9.028;2022-07-29T01:06:51;8.90;;;6.77;;
3789;SDS011;1910;49.042;9.028;2022-07-29T01:09:18;10.10;;;6.83;;
3789;SDS011;1910;49.042;9.028;2022-07-29T01:11:44;7.13;;;6.43;;
3789;SDS011;1910;49.042;9.028;2022-07-29T01:14:12;8.73;;;7.43;;
3789;SDS011;1910;49.042;9.028;2022-07-29T01:16:42;10.70;;;7.13;;
3789;SDS011;1910;49.042;9.028;2022-07-29T01:25:25;12.00;;;7.63;;
3789;SDS011;1910;49.042;9.028;2022-07-29T01:30:55;8.90;;;7.13;;
3789;SDS011;1910;49.042;9.028;2022-07-29T01:33:22;10.50;;;8.00;;
3789;SDS011;1910;49.042;9.028;2022-07-29T01:36:10;10.93;;;7.30;;
3789;SDS011;1910;49.042;9.028;2022-07-29T01:38:40;8.20;;;7.30;;
3789;SDS011;1910;49.042;9.028;2022-07-29T01:41:09;9.97;;;7.77;;
3789;SDS011;1910;49.042;9.028;2022-07-29T01:43:47;8.97;;;8.07;;
3789;SDS011;1910;49.042;9.028;2022-07-29T01:46:20;10.27;;;7.87;;
3789;SDS011;1910;49.042;9.028;2022-07-29T01:48:53;8.53;;;7.27;;
3789;SDS011;1910;49.042;9.028;2022-07-29T01:51:29;11.77;;;8.47;;
3789;SDS011;1910;49.042;9.028;2022-07-29T01:57:19;11.83;;;8.80;;
3789;SDS011;1910;49.042;9.028;2022-07-29T01:59:48;8.80;;;7.93;;
3789;SDS011;1910;49.042;9.028;2022-07-29T02:02:16;8.77;;;7.33;;
3789;SDS011;1910;49.042;9.028;2022-07-29T02:04:44;12.37;;;7.90;;
3789;SDS011;1910;49.042;9.028;2022-07-29T02:07:15;8.93;;;7.43;;
3789;SDS011;1910;49.042;9.028;2022-07-29T02:09:44;14.43;;;8.90;;
3789;SDS011;1910;49.042;9.028;2022-07-29T02:12:12;11.30;;;7.73;;
3789;SDS011;1910;49.042;9.028;2022-07-29T02:14:42;7.83;;;7.10;;
3789;SDS011;1910;49.042;9.028;2022-07-29T02:17:12;13.57;;;8.60;;
3789;SDS011;1910;49.042;9.028;2022-07-29T02:19:41;12.40;;;8.80;;
3789;SDS011;1910;49.042;9.028;2022-07-29T02:22:09;11.10;;;7.57;;
3789;SDS011;1910;49.042;9.028;2022-07-29T02:24:37;11.10;;;9.03;;
3789;SDS011;1910;49.042;9.028;2022-07-29T02:27:05;13.83;;;8.37;;
3789;SDS011;1910;49.042;9.028;2022-07-29T02:29:32;13.60;;;8.90;;
3789;SDS011;1910;49.042;9.028;2022-07-29T02:32:00;13.43;;;7.53;;
3789;SDS011;1910;49.042;9.028;2022-07-29T02:34:28;13.10;;;8.07;;
3789;SDS011;1910;49.042;9.028;2022-07-29T02:36:54;12.03;;;7.87;;
3789;SDS011;1910;49.042;9.028;2022-07-29T02:39:21;9.27;;;7.10;;
3789;SDS011;1910;49.042;9.028;2022-07-29T02:41:55;8.93;;;8.03;;
3789;SDS011;1910;49.042;9.028;2022-07-29T02:44:26;8.87;;;7.97;;
3789;SDS011;1910;49.042;9.028;2022-07-29T02:46:59;8.17;;;7.37;;
3789;SDS011;1910;49.042;9.028;2022-07-29T02:49:50;9.23;;;7.80;;
3789;SDS011;1910;49.042;9.028;2022-07-29T02:52:41;12.13;;;8.37;;
3789;SDS011;1910;49.042;9.028;2022-07-29T03:00:59;12.53;;;9.00;;
3789;SDS011;1910;49.042;9.028;2022-07-29T03:03:28;10.57;;;8.20;;
3789;SDS011;1910;49.042;9.028;2022-07-29T03:05:57;11.90;;;8.50;;
3789;SDS011;1910;49.042;9.028;2022-07-29T03:08:27;11.87;;;9.40;;
3789;SDS011;1910;49.042;9.028;2022-07-29T03:10:53;9.80;;;8.27;;
3789;SDS011;1910;49.042;9.028;2022-07-29T03:13:19;16.73;;;9.67;;
3789;SDS011;1910;49.042;9.028;2022-07-29T03:15:46;12.57;;;10.40;;
3789;SDS011;1910;49.042;9.028;2022-07-29T03:18:12;10.07;;;8.37;;
3789;SDS011;1910;49.042;9.028;2022-07-29T03:20:39;11.00;;;8.43;;
3789;SDS011;1910;49.042;9.028;2022-07-29T03:23:05;9.07;;;7.53;;
3789;SDS011;1910;49.042;9.028;2022-07-29T03:25:31;9.53;;;7.70;;
3789;SDS011;1910;49.042;9.028;2022-07-29T03:27:57;9.87;;;8.00;;
3789;SDS011;1910;49.042;9.028;2022-07-29T03:30:29;9.93;;;8.57;;
3789;SDS011;1910;49.042;9.028;2022-07-29T03:32:58;8.87;;;7.93;;
3789;SDS011;1910;49.042;9.028;2022-07-29T03:35:27;9.10;;;7.93;;
3789;SDS011;1910;49.042;9.028;2022-07-29T03:38:03;10.67;;;9.00;;
3789;SDS011;1910;49.042;9.028;2022-07-29T03:41:14;7.93;;;7.13;;
3789;SDS011;1910;49.042;9.028;2022-07-29T03:43:59;10.17;;;7.30;;
3789;SDS011;1910;49.042;9.028;2022-07-29T03:46:39;7.93;;;7.13;;
3789;SDS011;1910;49.042;9.028;2022-07-29T03:49:11;10.23;;;8.37;;
3789;SDS011;1910;49.042;9.028;2022-07-29T03:51:44;12.67;;;10.17;;
3789;SDS011;1910;49.042;9.028;2022-07-29T03:54:16;13.33;;;9.97;;
3789;SDS011;1910;49.042;9.028;2022-07-29T03:56:42;12.03;;;9.90;;
3789;SDS011;1910;49.042;9.028;2022-07-29T03:59:19;12.17;;;8.43;;
3789;SDS011;1910;49.042;9.028;2022-07-29T04:01:45;11.90;;;8.50;;
3789;SDS011;1910;49.042;9.028;2022-07-29T04:04:12;9.80;;;8.80;;
3789;SDS011;1910;49.042;9.028;2022-07-29T04:06:38;11.03;;;8.93;;
3789;SDS011;1910;49.042;9.028;2022-07-29T04:09:12;11.70;;;8.03;;
3789;SDS011;1910;49.042;9.028;2022-07-29T04:11:48;9.03;;;7.50;;
3789;SDS011;1910;49.042;9.028;2022-07-29T04:14:16;11.50;;;8.57;;
3789;SDS011;1910;49.042;9.028;2022-07-29T04:16:44;11.47;;;8.60;;
3789;SDS011;1910;49.042;9.028;2022-07-29T04:19:18;13.60;;;7.77;;
3789;SDS011;1910;49.042;9.028;2022-07-29T04:21:44;11.73;;;8.80;;
3789;SDS011;1910;49.042;9.028;2022-07-29T04:24:12;8.93;;;7.60;;
3789;SDS011;1910;49.042;9.028;2022-07-29T04:26:42;10.30;;;8.70;;
3789;SDS011;1910;49.042;9.028;2022-07-29T04:29:15;15.20;;;7.93;;
3789;SDS011;1910;49.042;9.028;2022-07-29T04:31:41;12.57;;;8.23;;
3789;SDS011;1910;49.042;9.028;2022-07-29T04:34:12;11.03;;;8.77;;
3789;SDS011;1910;49.042;9.028;2022-07-29T04:36:43;9.50;;;8.43;;
3789;SDS011;1910;49.042;9.028;2022-07-29T04:39:24;10.03;;;8.03;;
3789;SDS011;1910;49.042;9.028;2022-07-29T04:41:59;9.40;;;6.60;;
3789;SDS011;1910;49.042;9.028;2022-07-29T04:44:27;9.73;;;6.70;;
3789;SDS011;1910;49.042;9.028;2022-07-29T04:46:56;12.40;;;6.77;;
3789;SDS011;1910;49.042;9.028;2022-07-29T04:49:24;8.50;;;6.10;;
3789;SDS011;1910;49.042;9.028;2022-07-29T04:51:53;8.00;;;6.60;;
3789;SDS011;1910;49.042;9.028;2022-07-29T04:54:21;8.20;;;7.40;;
3789;SDS011;1910;49.042;9.028;2022-07-29T04:56:52;13.73;;;9.57;;
3789;SDS011;1910;49.042;9.028;2022-07-29T04:59:20;9.70;;;8.57;;
3789;SDS011;1910;49.042;9.028;2022-07-29T05:01:57;9.20;;;7.90;;
3789;SDS011;1910;49.042;9.028;2022-07-29T05:04:26;9.43;;;8.53;;
3789;SDS011;1910;49.042;9.028;2022-07-29T05:06:54;11.60;;;9.40;;
3789;SDS011;1910;49.042;9.028;2022-07-29T05:09:31;10.53;;;9.23;;
3789;SDS011;1910;49.042;9.028;2022-07-29T05:11:59;11.13;;;9.87;;
3789;SDS011;1910;49.042;9.028;2022-07-29T05:14:26;13.00;;;8.40;;
3789;SDS011;1910;49.042;9.028;2022-07-29T05:16:59;13.70;;;8.70;;
3789;SDS011;1910;49.042;9.028;2022-07-29T05:19:27;10.07;;;8.77;;
3789;SDS011;1910;49.042;9.028;2022-07-29T05:22:04;8.63;;;7.83;;
3789;SDS011;1910;49.042;9.028;2022-07-29T05:24:30;9.53;;;7.60;;
3789;SDS011;1910;49.042;9.028;2022-07-29T05:26:56;9.00;;;7.77;;
3789;SDS011;1910;49.042;9.028;2022-07-29T05:29:34;8.20;;;7.47;;
3789;SDS011;1910;49.042;9.028;2022-07-29T05:32:03;6.80;;;6.10;;
3789;SDS011;1910;49.042;9.028;2022-07-29T05:40:17;11.40;;;6.50;;
3789;SDS011;1910;49.042;9.028;2022-07-29T05:42:53;7.17;;;6.40;;
3789;SDS011;1910;49.042;9.028;2022-07-29T05:45:40;7.53;;;5.63;;
3789;SDS011;1910;49.042;9.028;2022-07-29T05:48:17;8.27;;;7.23;;
3789;SDS011;1910;49.042;9.028;2022-07-29T05:50:59;6.30;;;5.27;;
3789;SDS011;1910;49.042;9.028;2022-07-29T05:53:34;8.40;;;5.50;;
3789;SDS011;1910;49.042;9.028;2022-07-29T05:56:18;6.73;;;6.07;;
3789;SDS011;1910;49.042;9.028;2022-07-29T05:58:56;9.10;;;6.20;;
3789;SDS011;1910;49.042;9.028;2022-07-29T06:01:32;8.20;;;6.20;;
3789;SDS011;1910;49.042;9.028;2022-07-29T06:04:20;9.17;;;7.27;;
3789;SDS011;1910;49.042;9.028;2022-07-29T06:06:54;8.53;;;7.70;;
3789;SDS011;1910;49.042;9.028;2022-07-29T06:09:31;8.40;;;7.20;;
3789;SDS011;1910;49.042;9.028;2022-07-29T06:12:17;11.03;;;7.50;;
3789;SDS011;1910;49.042;9.028;2022-07-29T06:14:57;9.00;;;6.93;;
3789;SDS011;1910;49.042;9.028;2022-07-29T06:17:46;9.83;;;6.70;;
3789;SDS011;1910;49.042;9.028;2022-07-29T06:20:25;7.67;;;6.97;;
3789;SDS011;1910;49.042;9.028;2022-07-29T06:23:23;7.63;;;6.80;;
3789;SDS011;1910;49.042;9.028;2022-07-29T06:25:56;8.33;;;7.10;;
3789;SDS011;1910;49.042;9.028;2022-07-29T06:28:25;6.93;;;6.33;;
3789;SDS011;1910;49.042;9.028;2022-07-29T06:31:14;7.07;;;6.37;;
3789;SDS011;1910;49.042;9.028;2022-07-29T06:37:43;6.67;;;6.07;;
3789;SDS011;1910;49.042;9.028;2022-07-29T06:46:34;8.77;;;5.77;;
3789;SDS011;1910;49.042;9.028;2022-07-29T06:49:00;8.53;;;6.70;;
3789;SDS011;1910;49.042;9.028;2022-07-29T06:51:26;6.47;;;5.87;;
3789;SDS011;1910;49.042;9.028;2022-07-29T06:53:52;9.07;;;6.60;;
3789;SDS011;1910;49.042;9.028;2022-07-29T06:56:18;6.23;;;5.73;;
3789;SDS011;1910;49.042;9.028;2022-07-29T06:58:43;5.63;;;5.10;;
3789;SDS011;1910;49.042;9.028;2022-07-29T07:01:09;7.90;;;6.17;;
3789;SDS011;1910;49.042;9.028;2022-07-29T07:03:34;7.57;;;6.47;;
3789;SDS011;1910;49.042;9.028;2022-07-29T07:06:00;7.83;;;6.10;;
3789;SDS011;1910;49.042;9.028;2022-07-29T07:08:26;7.33;;;6.83;;
3789;SDS011;1910;49.042;9.028;2022-07-29T07:10:52;10.37;;;7.40;;
3789;SDS011;1910;49.042;9.028;2022-07-29T07:13:18;10.60;;;7.30;;
3789;SDS011;1910;49.042;9.028;2022-07-29T07:15:44;7.90;;;7.20;;
3789;SDS011;1910;49.042;9.028;2022-07-29T07:18:12;9.93;;;8.00;;
3789;SDS011;1910;49.042;9.028;2022-07-29T07:20:38;7.20;;;6.70;;
3789;SDS011;1910;49.042;9.028;2022-07-29T07:23:04;8.00;;;6.53;;
3789;SDS011;1910;49.042;9.028;2022-07-29T07:25:30;15.43;;;6.60;;
3789;SDS011;1910;49.042;9.028;2022-07-29T07:27:56;6.57;;;5.77;;
3789;SDS011;1910;49.042;9.028;2022-07-29T07:30:21;8.90;;;6.80;;
3789;SDS011;1910;49.042;9.028;2022-07-29T07:32:47;8.43;;;5.93;;
3789;SDS011;1910;49.042;9.028;2022-07-29T07:35:12;6.83;;;6.23;;
3789;SDS011;1910;49.042;9.028;2022-07-29T07:37:38;6.60;;;6.10;;
3789;SDS011;1910;49.042;9.028;2022-07-29T07:40:07;9.30;;;8.40;;
3789;SDS011;1910;49.042;9.028;2022-07-29T07:42:34;8.33;;;7.63;;
3789;SDS011;1910;49.042;9.028;2022-07-29T07:45:00;10.43;;;8.47;;
3789;SDS011;1910;49.042;9.028;2022-07-29T07:47:26;8.80;;;7.90;;
3789;SDS011;1910;49.042;9.028;2022-07-29T07:49:52;8.60;;;7.87;;
3789;SDS011;1910;49.042;9.028;2022-07-29T07:52:18;8.73;;;8.00;;
3789;SDS011;1910;49.042;9.028;2022-07-29T07:54:45;8.63;;;7.83;;
3789;SDS011;1910;49.042;9.028;2022-07-29T07:57:11;9.33;;;8.43;;
3789;SDS011;1910;49.042;9.028;2022-07-29T07:59:37;10.77;;;7.90;;
3789;SDS011;1910;49.042;9.028;2022-07-29T08:02:03;7.07;;;6.57;;
3789;SDS011;1910;49.042;9.028;2022-07-29T08:04:29;7.43;;;6.73;;
3789;SDS011;1910;49.042;9.028;2022-07-29T08:06:55;6.50;;;6.00;;
3789;SDS011;1910;49.042;9.028;2022-07-29T08:09:22;7.07;;;6.37;;
3789;SDS011;1910;49.042;9.028;2022-07-29T08:11:48;6.30;;;5.80;;
3789;SDS011;1910;49.042;9.028;2022-07-29T08:14:14;8.73;;;5.77;;
3789;SDS011;1910;49.042;9.028;2022-07-29T08:16:40;10.93;;;7.27;;
3789;SDS011;1910;49.042;9.028;2022-07-29T08:19:06;8.73;;;6.37;;
3789;SDS011;1910;49.042;9.028;2022-07-29T08:21:32;7.90;;;6.17;;
3789;SDS011;1910;49.042;9.028;2022-07-29T08:23:58;12.20;;;5.80;;
3789;SDS011;1910;49.042;9.028;2022-07-29T08:26:42;7.13;;;6.50;;
3789;SDS011;1910;49.042;9.028;2022-07-29T08:29:08;8.10;;;6.03;;
3789;SDS011;1910;49.042;9.028;2022-07-29T08:31:35;8.53;;;6.80;;
3789;SDS011;1910;49.042;9.028;2022-07-29T08:34:01;9.57;;;5.93;;
3789;SDS011;1910;49.042;9.028;2022-07-29T08:36:28;6.67;;;6.20;;
3789;SDS011;1910;49.042;9.028;2022-07-29T08:38:53;14.00;;;7.30;;
3789;SDS011;1910;49.042;9.028;2022-07-29T08:41:19;6.93;;;6.23;;
3789;SDS011;1910;49.042;9.028;2022-07-29T08:43:45;7.10;;;5.80;;
3789;SDS011;1910;49.042;9.028;2022-07-29T08:46:11;6.47;;;5.97;;
3789;SDS011;1910;49.042;9.028;2022-07-29T08:48:37;9.63;;;7.20;;
3789;SDS011;1910;49.042;9.028;2022-07-29T08:51:05;7.20;;;6.50;;
3789;SDS011;1910;49.042;9.028;2022-07-29T08:53:32;7.57;;;6.73;;
3789;SDS011;1910;49.042;9.028;2022-07-29T08:55:58;7.90;;;7.23;;
3789;SDS011;1910;49.042;9.028;2022-07-29T08:58:24;8.97;;;8.13;;
3789;SDS011;1910;49.042;9.028;2022-07-29T09:00:55;8.13;;;7.43;;
3789;SDS011;1910;49.042;9.028;2022-07-29T09:03:25;10.13;;;7.93;;
3789;SDS011;1910;49.042;9.028;2022-07-29T09:05:54;9.97;;;9.07;;
3789;SDS011;1910;49.042;9.028;2022-07-29T09:08:20;8.17;;;7.40;;
3789;SDS011;1910;49.042;9.028;2022-07-29T09:10:46;8.13;;;7.30;;
3789;SDS011;1910;49.042;9.028;2022-07-29T09:13:12;8.83;;;8.10;;
3789;SDS011;1910;49.042;9.028;2022-07-29T09:15:37;9.30;;;8.43;;
3789;SDS011;1910;49.042;9.028;2022-07-29T09:18:03;7.80;;;7.10;;
3789;SDS011;1910;49.042;9.028;2022-07-29T09:20:29;8.40;;;7.70;;
3789;SDS011;1910;49.042;9.028;2022-07-29T09:23:14;10.03;;;7.07;;
3789;SDS011;1910;49.042;9.028;2022-07-29T09:25:40;7.53;;;6.83;;
3789;SDS011;1910;49.042;9.028;2022-07-29T09:28:06;8.03;;;6.60;;
3789;SDS011;1910;49.042;9.028;2022-07-29T09:30:56;11.83;;;6.83;;
3789;SDS011;1910;49.042;9.028;2022-07-29T09:33:32;7.87;;;7.03;;
3789;SDS011;1910;49.042;9.028;2022-07-29T09:36:05;7.50;;;6.30;;
3789;SDS011;1910;49.042;9.028;2022-07-29T09:38:31;9.03;;;7.07;;
3789;SDS011;1910;49.042;9.028;2022-07-29T09:40:58;7.57;;;6.97;;
3789;SDS011;1910;49.042;9.028;2022-07-29T09:43:25;8.50;;;7.30;;
3789;SDS011;1910;49.042;9.028;2022-07-29T09:45:51;9.00;;;6.90;;
3789;SDS011;1910;49.042;9.028;2022-07-29T09:48:17;7.40;;;6.50;;
3789;SDS011;1910;49.042;9.028;2022-07-29T09:50:45;6.57;;;5.97;;
3789;SDS011;1910;49.042;9.028;2022-07-29T09:53:23;12.17;;;6.40;;
3789;SDS011;1910;49.042;9.028;2022-07-29T09:55:54;13.90;;;7.10;;
3789;SDS011;1910;49.042;9.028;2022-07-29T09:58:20;7.17;;;6.57;;
3789;SDS011;1910;49.042;9.028;2022-07-29T10:00:47;11.50;;;6.80;;
3789;SDS011;1910;49.042;9.028;2022-07-29T10:03:14;7.77;;;7.07;;
3789;SDS011;1910;49.042;9.028;2022-07-29T10:05:41;7.90;;;7.10;;
3789;SDS011;1910;49.042;9.028;2022-07-29T10:08:07;8.07;;;6.30;;
3789;SDS011;1910;49.042;9.028;2022-07-29T10:10:34;8.50;;;7.00;;
3789;SDS011;1910;49.042;9.028;2022-07-29T10:13:05;7.90;;;7.10;;
3789;SDS011;1910;49.042;9.028;2022-07-29T10:15:39;10.60;;;7.03;;
3789;SDS011;1910;49.042;9.028;2022-07-29T10:18:09;7.37;;;6.80;;
3789;SDS011;1910;49.042;9.028;2022-07-29T10:20:35;7.40;;;6.80;;
3789;SDS011;1910;49.042;9.028;2022-07-29T10:23:01;9.37;;;8.37;;
3789;SDS011;1910;49.042;9.028;2022-07-29T10:25:27;8.70;;;7.93;;
3789;SDS011;1910;49.042;9.028;2022-07-29T10:27:53;8.70;;;7.83;;
3789;SDS011;1910;49.042;9.028;2022-07-29T10:30:20;9.03;;;8.23;;
3789;SDS011;1910;49.042;9.028;2022-07-29T10:38:06;7.27;;;6.60;;
3789;SDS011;1910;49.042;9.028;2022-07-29T10:43:51;7.83;;;6.70;;
3789;SDS011;1910;49.042;9.028;2022-07-29T10:46:18;8.00;;;7.17;;
3789;SDS011;1910;49.042;9.028;2022-07-29T10:49:03;11.43;;;7.57;;
3789;SDS011;1910;49.042;9.028;2022-07-29T10:59:38;10.13;;;6.43;;
3789;SDS011;1910;49.042;9.028;2022-07-29T11:10:42;8.70;;;6.23;;
3789;SDS011;1910;49.042;9.028;2022-07-29T11:13:08;6.77;;;5.53;;
3789;SDS011;1910;49.042;9.028;2022-07-29T11:15:56;7.10;;;6.40;;
3789;SDS011;1910;49.042;9.028;2022-07-29T11:18:22;6.10;;;5.60;;
3789;SDS011;1910;49.042;9.028;2022-07-29T11:20:49;6.83;;;5.97;;
3789;SDS011;1910;49.042;9.028;2022-07-29T11:23:29;5.70;;;5.20;;
3789;SDS011;1910;49.042;9.028;2022-07-29T11:28:50;8.60;;;5.80;;
3789;SDS011;1910;49.042;9.028;2022-07-29T11:31:38;7.10;;;5.93;;
3789;SDS011;1910;49.042;9.028;2022-07-29T11:34:16;11.83;;;5.83;;
3789;SDS011;1910;49.042;9.028;2022-07-29T11:39:38;7.47;;;5.77;;
3789;SDS011;1910;49.042;9.028;2022-07-29T11:42:57;7.83;;;6.40;;
3789;SDS011;1910;49.042;9.028;2022-07-29T11:45:02;11.00;;;5.63;;
3789;SDS011;1910;49.042;9.028;2022-07-29T11:47:36;6.77;;;6.07;;
3789;SDS011;1910;49.042;9.028;2022-07-29T11:50:09;6.93;;;5.63;;
3789;SDS011;1910;49.042;9.028;2022-07-29T11:52:37;5.60;;;4.80;;
3789;SDS011;1910;49.042;9.028;2022-07-29T11:55:12;5.67;;;5.17;;
3789;SDS011;1910;49.042;9.028;2022-07-29T11:57:46;9.70;;;5.07;;
3789;SDS011;1910;49.042;9.028;2022-07-29T12:00:59;5.37;;;4.97;;
3789;SDS011;1910;49.042;9.028;2022-07-29T12:03:08;11.60;;;6.30;;
3789;SDS011;1910;49.042;9.028;2022-07-29T12:10:36;10.03;;;6.50;;
3789;SDS011;1910;49.042;9.028;2022-07-29T12:13:03;8.10;;;6.30;;
3789;SDS011;1910;49.042;9.028;2022-07-29T12:15:28;6.80;;;5.10;;
3789;SDS011;1910;49.042;9.028;2022-07-29T12:17:54;5.87;;;5.37;;
3789;SDS011;1910;49.042;9.028;2022-07-29T12:20:24;8.30;;;5.10;;
3789;SDS011;1910;49.042;9.028;2022-07-29T12:22:51;6.60;;;6.00;;
3789;SDS011;1910;49.042;9.028;2022-07-29T12:25:18;8.40;;;5.50;;
3789;SDS011;1910;49.042;9.028;2022-07-29T12:27:44;7.70;;;6.10;;
3789;SDS011;1910;49.042;9.028;2022-07-29T12:30:11;6.37;;;5.30;;
3789;SDS011;1910;49.042;9.028;2022-07-29T12:32:43;5.30;;;4.90;;
3789;SDS011;1910;49.042;9.028;2022-07-29T12:35:15;6.60;;;5.60;;
3789;SDS011;1910;49.042;9.028;2022-07-29T12:37:44;5.83;;;5.30;;
3789;SDS011;1910;49.042;9.028;2022-07-29T12:40:13;10.00;;;6.77;;
3789;SDS011;1910;49.042;9.028;2022-07-29T12:42:41;10.23;;;5.60;;
3789;SDS011;1910;49.042;9.028;2022-07-29T12:45:28;12.23;;;5.60;;
3789;SDS011;1910;49.042;9.028;2022-07-29T12:47:54;5.80;;;5.00;;
3789;SDS011;1910;49.042;9.028;2022-07-29T12:50:20;5.60;;;5.10;;
3789;SDS011;1910;49.042;9.028;2022-07-29T12:52:45;8.00;;;6.73;;
3789;SDS011;1910;49.042;9.028;2022-07-29T12:55:11;5.50;;;5.00;;
3789;SDS011;1910;49.042;9.028;2022-07-29T12:57:46;6.20;;;5.53;;
3789;SDS011;1910;49.042;9.028;2022-07-29T13:00:15;7.70;;;5.83;;
3789;SDS011;1910;49.042;9.028;2022-07-29T13:02:42;5.53;;;5.07;;
3789;SDS011;1910;49.042;9.028;2022-07-29T13:05:08;5.97;;;5.43;;
3789;SDS011;1910;49.042;9.028;2022-07-29T13:07:36;6.47;;;5.03;;
3789;SDS011;1910;49.042;9.028;2022-07-29T13:10:15;10.10;;;5.17;;
3789;SDS011;1910;49.042;9.028;2022-07-29T13:13:01;6.53;;;5.20;;
3789;SDS011;1910;49.042;9.028;2022-07-29T13:15:31;5.50;;;5.00;;
3789;SDS011;1910;49.042;9.028;2022-07-29T13:17:57;6.60;;;5.47;;
3789;SDS011;1910;49.042;9.028;2022-07-29T13:20:23;8.40;;;5.17;;
3789;SDS011;1910;49.042;9.028;2022-07-29T13:22:50;12.13;;;6.10;;
3789;SDS011;1910;49.042;9.028;2022-07-29T13:25:23;6.90;;;6.20;;
3789;SDS011;1910;49.042;9.028;2022-07-29T13:27:57;6.23;;;5.63;;
3789;SDS011;1910;49.042;9.028;2022-07-29T13:30:23;6.93;;;5.63;;
3789;SDS011;1910;49.042;9.028;2022-07-29T13:32:49;6.73;;;6.10;;
3789;SDS011;1910;49.042;9.028;2022-07-29T13:35:16;6.63;;;5.40;;
3789;SDS011;1910;49.042;9.028;2022-07-29T13:37:42;6.80;;;5.83;;
3789;SDS011;1910;49.042;9.028;2022-07-29T13:40:08;6.40;;;5.60;;
3789;SDS011;1910;49.042;9.028;2022-07-29T13:42:34;9.43;;;5.77;;
3789;SDS011;1910;49.042;9.028;2022-07-29T13:45:00;7.27;;;6.57;;
3789;SDS011;1910;49.042;9.028;2022-07-29T13:47:27;13.63;;;6.87;;
3789;SDS011;1910;49.042;9.028;2022-07-29T13:49:53;11.80;;;6.63;;
3789;SDS011;1910;49.042;9.028;2022-07-29T13:52:20;5.93;;;5.33;;
3789;SDS011;1910;49.042;9.028;2022-07-29T13:54:46;6.60;;;5.27;;
3789;SDS011;1910;49.042;9.028;2022-07-29T13:57:12;6.33;;;5.73;;
3789;SDS011;1910;49.042;9.028;2022-07-29T13:59:38;7.33;;;6.23;;
3789;SDS011;1910;49.042;9.028;2022-07-29T14:02:05;5.90;;;5.30;;
3789;SDS011;1910;49.042;9.028;2022-07-29T14:04:31;6.40;;;5.60;;
3789;SDS011;1910;49.042;9.028;2022-07-29T14:06:58;5.87;;;5.47;;
3789;SDS011;1910;49.042;9.028;2022-07-29T14:09:23;11.60;;;5.37;;
3789;SDS011;1910;49.042;9.028;2022-07-29T14:11:49;10.80;;;5.50;;
3789;SDS011;1910;49.042;9.028;2022-07-29T14:14:16;9.03;;;5.63;;
3789;SDS011;1910;49.042;9.028;2022-07-29T14:16:41;5.87;;;5.13;;
3789;SDS011;1910;49.042;9.028;2022-07-29T14:19:07;6.10;;;5.60;;
3789;SDS011;1910;49.042;9.028;2022-07-29T14:21:33;5.47;;;4.97;;
3789;SDS011;1910;49.042;9.028;2022-07-29T14:23:59;5.70;;;5.13;;
3789;SDS011;1910;49.042;9.028;2022-07-29T14:26:25;5.97;;;5.47;;
3789;SDS011;1910;49.042;9.028;2022-07-29T14:28:50;7.17;;;4.30;;
3789;SDS011;1910;49.042;9.028;2022-07-29T14:31:16;5.87;;;4.73;;
3789;SDS011;1910;49.042;9.028;2022-07-29T14:33:41;5.10;;;4.60;;
3789;SDS011;1910;49.042;9.028;2022-07-29T14:36:07;9.00;;;4.40;;
3789;SDS011;1910;49.042;9.028;2022-07-29T14:38:34;5.73;;;4.70;;
3789;SDS011;1910;49.042;9.028;2022-07-29T14:41:00;4.50;;;4.20;;
3789;SDS011;1910;49.042;9.028;2022-07-29T14:43:25;6.60;;;4.20;;
3789;SDS011;1910;49.042;9.028;2022-07-29T14:45:51;9.43;;;4.20;;
3789;SDS011;1910;49.042;9.028;2022-07-29T14:48:17;4.47;;;4.07;;
3789;SDS011;1910;49.042;9.028;2022-07-29T14:50:42;6.03;;;3.93;;
3789;SDS011;1910;49.042;9.028;2022-07-29T14:53:08;4.50;;;4.10;;
3789;SDS011;1910;49.042;9.028;2022-07-29T14:55:33;3.90;;;3.60;;
3789;SDS011;1910;49.042;9.028;2022-07-29T14:57:59;10.70;;;4.00;;
3789;SDS011;1910;49.042;9.028;2022-07-29T15:00:24;6.20;;;3.43;;
3789;SDS011;1910;49.042;9.028;2022-07-29T15:02:50;5.93;;;3.90;;
3789;SDS011;1910;49.042;9.028;2022-07-29T15:05:16;4.17;;;3.13;;
3789;SDS011;1910;49.042;9.028;2022-07-29T15:07:41;3.90;;;3.60;;
3789;SDS011;1910;49.042;9.028;2022-07-29T15:10:08;9.73;;;3.70;;
3789;SDS011;1910;49.042;9.028;2022-07-29T15:12:33;4.00;;;3.60;;
3789;SDS011;1910;49.042;9.028;2022-07-29T15:14:59;4.03;;;3.40;;
3789;SDS011;1910;49.042;9.028;2022-07-29T15:17:24;4.80;;;3.90;;
3789;SDS011;1910;49.042;9.028;2022-07-29T15:19:50;41.73;;;8.57;;
3789;SDS011;1910;49.042;9.028;2022-07-29T15:22:16;3.77;;;3.30;;
3789;SDS011;1910;49.042;9.028;2022-07-29T15:24:41;5.33;;;3.17;;
3789;SDS011;1910;49.042;9.028;2022-07-29T15:27:07;5.83;;;3.20;;
3789;SDS011;1910;49.042;9.028;2022-07-29T15:29:38;4.67;;;3.50;;
3789;SDS011;1910;49.042;9.028;2022-07-29T15:32:08;4.83;;;3.13;;
3789;SDS011;1910;49.042;9.028;2022-07-29T15:34:34;3.87;;;3.20;;
3789;SDS011;1910;49.042;9.028;2022-07-29T15:37:00;2.93;;;2.73;;
3789;SDS011;1910;49.042;9.028;2022-07-29T15:39:26;4.10;;;3.30;;
3789;SDS011;1910;49.042;9.028;2022-07-29T15:41:52;4.00;;;3.23;;
3789;SDS011;1910;49.042;9.028;2022-07-29T15:44:18;4.07;;;3.10;;
3789;SDS011;1910;49.042;9.028;2022-07-29T15:46:44;5.10;;;3.27;;
3789;SDS011;1910;49.042;9.028;2022-07-29T15:49:28;4.10;;;3.70;;
3789;SDS011;1910;49.042;9.028;2022-07-29T15:52:00;5.43;;;4.00;;
3789;SDS011;1910;49.042;9.028;2022-07-29T15:54:28;7.80;;;3.13;;
3789;SDS011;1910;49.042;9.028;2022-07-29T15:56:54;6.20;;;3.43;;
3789;SDS011;1910;49.042;9.028;2022-07-29T15:59:20;3.30;;;3.10;;
3789;SDS011;1910;49.042;9.028;2022-07-29T16:01:47;5.90;;;3.10;;
3789;SDS011;1910;49.042;9.028;2022-07-29T16:04:12;4.37;;;3.43;;
3789;SDS011;1910;49.042;9.028;2022-07-29T16:06:38;5.07;;;3.30;;
3789;SDS011;1910;49.042;9.028;2022-07-29T16:09:04;7.20;;;3.47;;
3789;SDS011;1910;49.042;9.028;2022-07-29T16:11:29;5.07;;;3.50;;
3789;SDS011;1910;49.042;9.028;2022-07-29T16:13:55;3.80;;;3.40;;
3789;SDS011;1910;49.042;9.028;2022-07-29T16:16:20;4.50;;;3.37;;
3789;SDS011;1910;49.042;9.028;2022-07-29T16:18:46;4.43;;;3.60;;
3789;SDS011;1910;49.042;9.028;2022-07-29T16:21:11;9.03;;;3.30;;
3789;SDS011;1910;49.042;9.028;2022-07-29T16:23:38;5.03;;;3.30;;
3789;SDS011;1910;49.042;9.028;2022-07-29T16:26:04;4.23;;;3.50;;
3789;SDS011;1910;49.042;9.028;2022-07-29T16:28:29;2.97;;;2.77;;
3789;SDS011;1910;49.042;9.028;2022-07-29T16:30:55;8.73;;;3.37;;
3789;SDS011;1910;49.042;9.028;2022-07-29T16:33:21;6.90;;;2.58;;
3789;SDS011;1910;49.042;9.028;2022-07-29T16:35:48;3.93;;;2.70;;